Time,TemperatureF,DewpointF,PressureIn,WindDirection,WindDirectionDegrees,WindSpeedMPH,WindSpeedGustMPH,Humidity,HourlyPrecipIn,Conditions,Clouds,dailyrainin,SoftwareType,DateUTC
2013-06-06 00:05:00,55.0,49.0,30.17,WSW,245,0.0,0.0,80,0.00,,,0.00,weatherlink.com 1.10,2013-06-06 04:05:00,
2013-06-06 00:20:00,54.6,49.0,30.17,WSW,245,0.0,0.0,81,0.00,,,0.00,weatherlink.com 1.10,2013-06-06 04:20:00,
2013-06-06 00:35:00,54.3,49.0,30.17,WSW,245,0.0,0.0,81,0.00,,,0.00,weatherlink.com 1.10,2013-06-06 04:35:00,
2013-06-06 00:50:00,53.9,49.0,30.16,WSW,245,0.0,0.0,83,0.00,,,0.00,weatherlink.com 1.10,2013-06-06 04:50:00,
2013-06-06 01:05:00,53.6,49.0,30.16,WSW,245,0.0,0.0,85,0.00,,,0.00,weatherlink.com 1.10,2013-06-06 05:05:00,
2013-06-06 01:20:00,53.2,49.0,30.16,WSW,245,0.0,0.0,86,0.00,,,0.00,weatherlink.com 1.10,2013-06-06 05:20:00,
2013-06-06 01:35:00,53.0,49.0,30.16,WSW,245,0.0,0.0,87,0.00,,,0.00,weatherlink.com 1.10,2013-06-06 05:35:00,
2013-06-06 01:50:00,52.7,49.0,30.16,WSW,245,0.0,0.0,88,0.00,,,0.00,weatherlink.com 1.10,2013-06-06 05:50:00,
2013-06-06 02:05:00,52.5,49.0,30.17,WSW,245,0.0,0.0,88,0.00,,,0.00,weatherlink.com 1.10,2013-06-06 06:05:00,
2013-06-06 02:20:00,52.6,50.0,30.17,WSW,245,0.0,0.0,89,0.00,,,0.00,weatherlink.com 1.10,2013-06-06 06:20:00,
2013-06-06 02:35:00,52.4,49.0,30.17,WSW,245,0.0,0.0,89,0.00,,,0.00,weatherlink.com 1.10,2013-06-06 06:35:00,
2013-06-06 02:50:00,52.3,50.0,30.17,WSW,245,0.0,0.0,90,0.00,,,0.00,weatherlink.com 1.10,2013-06-06 06:50:00,
2013-06-06 03:05:00,52.2,50.0,30.16,WSW,245,0.0,0.0,91,0.00,,,0.00,weatherlink.com 1.10,2013-06-06 07:05:00,
2013-06-06 03:20:00,52.2,50.0,30.16,WSW,245,0.0,0.0,92,0.00,,,0.00,weatherlink.com 1.10,2013-06-06 07:20:00,
2013-06-06 03:35:00,51.9,49.0,30.16,WSW,245,0.0,0.0,91,0.00,,,0.00,weatherlink.com 1.10,2013-06-06 07:35:00,
2013-06-06 03:50:00,51.7,50.0,30.16,WSW,245,0.0,0.0,92,0.00,,,0.00,weatherlink.com 1.10,2013-06-06 07:50:00,
2013-06-06 04:05:00,51.7,50.0,30.16,WSW,245,0.0,0.0,92,0.00,,,0.00,weatherlink.com 1.10,2013-06-06 08:05:00,
2013-06-06 04:20:00,51.4,50.0,30.17,WSW,245,0.0,0.0,93,0.00,,,0.00,weatherlink.com 1.10,2013-06-06 08:20:00,
2013-06-06 04:35:00,51.3,49.0,30.16,WSW,245,0.0,0.0,93,0.00,,,0.00,weatherlink.com 1.10,2013-06-06 08:35:00,
2013-06-06 04:50:00,51.7,50.0,30.16,WSW,245,0.0,0.0,94,0.00,,,0.00,weatherlink.com 1.10,2013-06-06 08:50:00,
2013-06-06 05:05:00,52.5,51.0,30.16,WSW,245,0.0,0.0,93,0.00,,,0.00,weatherlink.com 1.10,2013-06-06 09:05:00,
2013-06-06 05:20:00,53.3,51.0,30.16,WSW,245,0.0,0.0,92,0.00,,,0.00,weatherlink.com 1.10,2013-06-06 09:20:00,
2013-06-06 05:35:00,53.8,51.0,30.16,WSW,245,0.0,0.0,91,0.00,,,0.00,weatherlink.com 1.10,2013-06-06 09:35:00,
2013-06-06 05:50:00,54.1,52.0,30.15,WSW,245,0.0,0.0,91,0.00,,,0.00,weatherlink.com 1.10,2013-06-06 09:50:00,
2013-06-06 06:05:00,54.5,52.0,30.16,WSW,245,0.0,0.0,92,0.00,,,0.00,weatherlink.com 1.10,2013-06-06 10:05:00,
2013-06-06 06:20:00,54.9,53.0,30.16,WSW,245,0.0,0.0,92,0.00,,,0.00,weatherlink.com 1.10,2013-06-06 10:20:00,
2013-06-06 06:35:00,55.6,53.0,30.17,WSW,245,0.0,0.0,92,0.00,,,0.00,weatherlink.com 1.10,2013-06-06 10:35:00,
2013-06-06 06:50:00,56.7,55.0,30.16,WSW,245,0.0,0.0,93,0.00,,,0.00,weatherlink.com 1.10,2013-06-06 10:50:00,
2013-06-06 07:05:00,57.5,55.0,30.16,SW,231,0.0,0.0,92,0.00,,,0.00,weatherlink.com 1.10,2013-06-06 11:05:00,
2013-06-06 07:20:00,58.0,55.0,30.16,East,92,0.0,1.0,90,0.00,,,0.00,weatherlink.com 1.10,2013-06-06 11:20:00,
2013-06-06 07:35:00,58.5,55.0,30.16,NE,55,1.0,2.0,89,0.00,,,0.00,weatherlink.com 1.10,2013-06-06 11:35:00,
2013-06-06 07:50:00,58.9,56.0,30.17,East,81,0.0,2.0,89,0.00,,,0.00,weatherlink.com 1.10,2013-06-06 11:50:00,
2013-06-06 08:05:00,59.8,56.0,30.16,NNE,23,1.0,2.0,87,0.00,,,0.00,weatherlink.com 1.10,2013-06-06 12:05:00,
2013-06-06 08:20:00,60.4,56.0,30.16,East,87,1.0,2.0,85,0.00,,,0.00,weatherlink.com 1.10,2013-06-06 12:20:00,
2013-06-06 08:35:00,60.9,56.0,30.16,ENE,78,0.0,1.0,85,0.00,,,0.00,weatherlink.com 1.10,2013-06-06 12:35:00,
2013-06-06 08:50:00,61.9,56.0,30.16,East,82,0.0,2.0,82,0.00,,,0.00,weatherlink.com 1.10,2013-06-06 12:50:00,
2013-06-06 09:05:00,62.6,57.0,30.16,ESE,109,1.0,2.0,81,0.00,,,0.00,weatherlink.com 1.10,2013-06-06 13:05:00,
2013-06-06 09:21:00,64.0,57.0,30.15,SSW,212,3.0,5.0,77,0.00,,,0.00,weatherlink.com 1.10,2013-06-06 13:21:00,
2013-06-06 09:36:00,64.2,57.0,30.15,WSW,240,0.0,1.0,77,0.00,,,0.00,weatherlink.com 1.10,2013-06-06 13:36:00,
2013-06-06 09:51:00,65.0,57.0,30.15,ENE,64,0.0,2.0,76,0.00,,,0.00,weatherlink.com 1.10,2013-06-06 13:51:00,
2013-06-06 10:06:00,66.4,58.0,30.15,SW,226,1.0,6.0,75,0.00,,,0.00,weatherlink.com 1.10,2013-06-06 14:06:00,
2013-06-06 10:21:00,67.4,57.0,30.14,East,101,1.0,6.0,69,0.00,,,0.00,weatherlink.com 1.10,2013-06-06 14:21:00,
2013-06-06 10:36:00,68.2,57.0,30.14,NE,44,0.0,3.0,67,0.00,,,0.00,weatherlink.com 1.10,2013-06-06 14:36:00,
2013-06-06 10:51:00,69.6,57.0,30.13,SE,133,1.0,4.0,65,0.00,,,0.00,weatherlink.com 1.10,2013-06-06 14:51:00,
2013-06-06 11:06:00,69.4,56.0,30.14,East,82,1.0,5.0,63,0.00,,,0.00,weatherlink.com 1.10,2013-06-06 15:06:00,
2013-06-06 11:21:00,69.0,56.0,30.13,SW,218,4.0,7.0,64,0.00,,,0.00,weatherlink.com 1.10,2013-06-06 15:21:00,
2013-06-06 11:36:00,69.0,57.0,30.13,ENE,65,0.0,6.0,65,0.00,,,0.00,weatherlink.com 1.10,2013-06-06 15:36:00,
2013-06-06 11:51:00,69.0,57.0,30.12,ESE,106,1.0,3.0,66,0.00,,,0.00,weatherlink.com 1.10,2013-06-06 15:51:00,
2013-06-06 12:06:00,69.2,56.0,30.13,ESE,106,0.0,4.0,64,0.00,,,0.00,weatherlink.com 1.10,2013-06-06 16:06:00,
2013-06-06 12:36:00,68.9,54.0,30.12,SSE,167,2.0,3.0,59,0.00,,,0.00,weatherlink.com 1.10,2013-06-06 16:36:00,
2013-06-06 12:51:00,68.8,55.0,30.11,SW,228,1.0,4.0,62,0.00,,,0.00,weatherlink.com 1.10,2013-06-06 16:51:00,
2013-06-06 13:06:00,68.6,55.0,30.11,ESE,120,0.0,2.0,62,0.00,,,0.00,weatherlink.com 1.10,2013-06-06 17:06:00,
2013-06-06 13:36:00,69.0,50.0,30.11,SE,134,1.0,4.0,52,0.00,,,0.00,weatherlink.com 1.10,2013-06-06 17:36:00,
2013-06-06 13:51:00,69.6,49.0,30.11,ESE,102,2.0,9.0,49,0.00,,,0.00,weatherlink.com 1.10,2013-06-06 17:51:00,
2013-06-06 14:06:00,70.1,50.0,30.11,ESE,107,0.0,3.0,50,0.00,,,0.00,weatherlink.com 1.10,2013-06-06 18:06:00,
2013-06-06 14:21:00,69.9,50.0,30.11,North,6,0.0,8.0,49,0.00,,,0.00,weatherlink.com 1.10,2013-06-06 18:21:00,
2013-06-06 14:36:00,69.2,50.0,30.11,ESE,116,1.0,5.0,51,0.00,,,0.00,weatherlink.com 1.10,2013-06-06 18:36:00,
2013-06-06 14:51:00,68.4,48.0,30.11,East,81,1.0,9.0,48,0.00,,,0.00,weatherlink.com 1.10,2013-06-06 18:51:00,
2013-06-06 15:06:00,68.1,48.0,30.10,SE,144,0.0,4.0,48,0.00,,,0.00,weatherlink.com 1.10,2013-06-06 19:06:00,
2013-06-06 15:21:00,67.9,48.0,30.10,SE,127,0.0,3.0,50,0.00,,,0.00,weatherlink.com 1.10,2013-06-06 19:21:00,
2013-06-06 15:36:00,67.7,49.0,30.10,NE,47,0.0,3.0,51,0.00,,,0.00,weatherlink.com 1.10,2013-06-06 19:36:00,
2013-06-06 15:51:00,67.7,50.0,30.09,ESE,117,1.0,4.0,53,0.00,,,0.00,weatherlink.com 1.10,2013-06-06 19:51:00,
2013-06-06 16:06:00,67.5,51.0,30.09,NE,49,0.0,3.0,56,0.00,,,0.00,weatherlink.com 1.10,2013-06-06 20:06:00,
2013-06-06 16:21:00,67.2,52.0,30.09,NNE,23,0.0,2.0,59,0.00,,,0.00,weatherlink.com 1.10,2013-06-06 20:21:00,
2013-06-06 16:36:00,66.4,54.0,30.09,SE,143,0.0,4.0,65,0.00,,,0.00,weatherlink.com 1.10,2013-06-06 20:36:00,
2013-06-06 16:51:00,65.2,55.0,30.09,ENE,72,0.0,3.0,70,0.00,,,0.00,weatherlink.com 1.10,2013-06-06 20:51:00,
2013-06-06 17:06:00,63.7,56.0,30.09,SSW,212,0.0,4.0,75,0.01,,,0.01,weatherlink.com 1.10,2013-06-06 21:06:00,
2013-06-06 17:21:00,62.4,57.0,30.09,SE,137,0.0,1.0,81,0.03,,,0.03,weatherlink.com 1.10,2013-06-06 21:21:00,
2013-06-06 17:36:00,61.3,57.0,30.09,NE,56,0.0,0.0,85,0.06,,,0.06,weatherlink.com 1.10,2013-06-06 21:36:00,
2013-06-06 17:52:00,60.7,57.0,30.08,NE,56,0.0,0.0,88,0.08,,,0.08,weatherlink.com 1.10,2013-06-06 21:52:00,
2013-06-06 18:06:00,60.5,58.0,30.07,NE,55,0.0,0.0,90,0.08,,,0.09,weatherlink.com 1.10,2013-06-06 22:06:00,
2013-06-06 18:21:00,60.5,58.0,30.07,NE,55,0.0,0.0,91,0.07,,,0.10,weatherlink.com 1.10,2013-06-06 22:21:00,
2013-06-06 18:36:00,60.6,58.0,30.08,NE,56,0.0,0.0,92,0.04,,,0.10,weatherlink.com 1.10,2013-06-06 22:36:00,
2013-06-06 18:52:00,60.8,59.0,30.08,NE,56,0.0,0.0,93,0.03,,,0.11,weatherlink.com 1.10,2013-06-06 22:52:00,
2013-06-06 19:06:00,60.9,59.0,30.08,NE,56,0.0,0.0,93,0.02,,,0.11,weatherlink.com 1.10,2013-06-06 23:06:00,
2013-06-06 19:22:00,60.9,59.0,30.07,NE,55,0.0,0.0,93,0.01,,,0.11,weatherlink.com 1.10,2013-06-06 23:22:00,
2013-06-06 19:37:00,60.9,59.0,30.07,NE,56,0.0,0.0,94,0.01,,,0.11,weatherlink.com 1.10,2013-06-06 23:37:00,
2013-06-06 19:52:00,60.8,59.0,30.07,NE,55,0.0,0.0,94,0.00,,,0.11,weatherlink.com 1.10,2013-06-06 23:52:00,
2013-06-06 20:07:00,60.8,59.0,30.07,NE,56,0.0,1.0,94,0.00,,,0.11,weatherlink.com 1.10,2013-06-07 00:07:00,
2013-06-06 20:22:00,60.7,59.0,30.07,NE,50,0.0,0.0,94,0.00,,,0.11,weatherlink.com 1.10,2013-06-07 00:22:00,
2013-06-06 20:37:00,60.6,59.0,30.07,NE,50,0.0,0.0,94,0.01,,,0.12,weatherlink.com 1.10,2013-06-07 00:37:00,
2013-06-06 20:52:00,60.6,59.0,30.07,South,189,1.0,2.0,95,0.02,,,0.13,weatherlink.com 1.10,2013-06-07 00:52:00,
2013-06-06 21:07:00,60.6,59.0,30.07,South,190,0.0,0.0,95,0.02,,,0.13,weatherlink.com 1.10,2013-06-07 01:07:00,
2013-06-06 21:22:00,60.5,59.0,30.06,South,190,0.0,0.0,95,0.02,,,0.13,weatherlink.com 1.10,2013-06-07 01:22:00,
2013-06-06 21:37:00,60.4,59.0,30.06,ESE,122,0.0,1.0,95,0.02,,,0.14,weatherlink.com 1.10,2013-06-07 01:37:00,
2013-06-06 21:52:00,60.4,59.0,30.06,WSW,256,0.0,1.0,95,0.02,,,0.15,weatherlink.com 1.10,2013-06-07 01:52:00,
2013-06-06 22:07:00,60.3,59.0,30.06,WSW,256,0.0,0.0,95,0.02,,,0.15,weatherlink.com 1.10,2013-06-07 02:07:00,
2013-06-06 22:22:00,60.2,59.0,30.07,WSW,245,0.0,1.0,95,0.04,,,0.17,weatherlink.com 1.10,2013-06-07 02:22:00,
2013-06-06 22:37:00,60.1,59.0,30.08,WSW,245,0.0,0.0,96,0.03,,,0.17,weatherlink.com 1.10,2013-06-07 02:37:00,
2013-06-06 22:52:00,60.0,59.0,30.07,West,260,0.0,1.0,96,0.04,,,0.19,weatherlink.com 1.10,2013-06-07 02:52:00,
2013-06-06 23:07:00,60.0,59.0,30.06,West,260,0.0,1.0,96,0.05,,,0.20,weatherlink.com 1.10,2013-06-07 03:07:00,
2013-06-06 23:22:00,59.9,59.0,30.05,ESE,113,0.0,1.0,96,0.03,,,0.20,weatherlink.com 1.10,2013-06-07 03:22:00,
2013-06-06 23:37:00,59.7,59.0,30.05,SW,233,0.0,0.0,96,0.04,,,0.21,weatherlink.com 1.10,2013-06-07 03:37:00,
2013-06-06 23:52:00,59.6,59.0,30.05,SW,233,0.0,1.0,96,0.04,,,0.23,weatherlink.com 1.10,2013-06-07 03:52:00,